Time;durP1;ratioP1;P1;durP2;ratioP2;P2;SDS_P1;SDS_P2;PMS_P1;PMS_P2;Temp;Humidity;BMP_temperature;BMP_pressure;BME280_temperature;BME280_humidity;BME280_pressure;Samples;Min_cycle;Max_cycle;Signal;HPM_P1;HPM_P2
2022/12/08 00:01:47;;;;;;;14.10;5.05;;;13.30;95.20;;;;;;4934143;29;20031;-91
2022/12/08 00:04:13;;;;;;;14.27;6.30;;;13.40;95.20;;;;;;4934141;28;20031;-92
2022/12/08 00:09:33;;;;;;;11.00;5.13;;;13.40;95.20;;;;;;4935232;29;20067;-92
2022/12/08 00:12:04;;;;;;;9.13;4.57;;;13.40;95.30;;;;;;4934608;29;20024;-91
2022/12/08 00:14:31;;;;;;;20.23;5.18;;;13.40;95.30;;;;;;4935190;29;20478;-92
2022/12/08 00:16:57;;;;;;;17.50;5.40;;;13.40;95.30;;;;;;4933807;29;20168;-92
2022/12/08 00:19:23;;;;;;;9.98;4.78;;;13.40;95.30;;;;;;4931776;29;20075;-92
2022/12/08 00:21:49;;;;;;;12.50;4.57;;;13.30;95.30;;;;;;4933749;29;20028;-91
2022/12/08 00:24:16;;;;;;;10.57;4.47;;;13.40;95.30;;;;;;4935112;29;20035;-92
2022/12/08 00:26:42;;;;;;;7.28;4.18;;;13.40;95.30;;;;;;4933704;29;20032;-92
2022/12/08 00:29:08;;;;;;;8.57;3.78;;;13.30;95.30;;;;;;4933748;29;20035;-93
2022/12/08 00:31:34;;;;;;;11.07;4.40;;;13.30;95.30;;;;;;4933826;29;20028;-92
2022/12/08 00:34:00;;;;;;;10.88;4.63;;;13.40;95.30;;;;;;4933733;29;20038;-92
2022/12/08 00:36:25;;;;;;;9.70;4.20;;;13.30;95.30;;;;;;4940737;29;20023;-93
2022/12/08 00:38:51;;;;;;;9.90;4.78;;;13.30;95.30;;;;;;4952664;29;20032;-91
2022/12/08 00:42:10;;;;;;;10.98;4.32;;;13.30;95.40;;;;;;4941504;29;20056;-91
2022/12/08 00:44:10;;;;;;;12.55;3.95;;;13.30;95.40;;;;;;4945809;29;20023;-91
2022/12/08 00:46:37;;;;;;;10.10;4.20;;;13.40;95.40;;;;;;4933807;29;20031;-92
2022/12/08 00:49:04;;;;;;;8.13;4.13;;;13.30;95.30;;;;;;4933431;29;20020;-92
2022/12/08 00:51:30;;;;;;;7.65;4.18;;;13.30;95.30;;;;;;4933557;29;20024;-92
2022/12/08 00:53:56;;;;;;;7.85;3.75;;;13.30;95.40;;;;;;4933680;29;20035;-92
2022/12/08 00:56:22;;;;;;;13.27;4.45;;;13.40;95.40;;;;;;4933726;29;20024;-92
2022/12/08 00:58:47;;;;;;;8.77;3.95;;;13.30;95.30;;;;;;4933435;29;20128;-92
2022/12/08 01:01:13;;;;;;;9.30;3.85;;;13.30;95.30;;;;;;4933808;29;20019;-91
2022/12/08 01:03:40;;;;;;;10.77;4.05;;;13.30;95.40;;;;;;4933512;29;20493;-91
2022/12/08 01:06:06;;;;;;;9.13;4.47;;;13.40;95.40;;;;;;4933744;28;20020;-91
2022/12/08 01:08:33;;;;;;;14.90;4.40;;;13.30;95.40;;;;;;4936288;29;20114;-93
2022/12/08 01:11:16;;;;;;;14.23;4.28;;;13.40;95.40;;;;;;4938062;29;20032;-92
2022/12/08 01:13:43;;;;;;;8.73;3.85;;;13.30;95.40;;;;;;4936648;29;20028;-92
2022/12/08 01:16:21;;;;;;;8.40;3.85;;;13.30;95.40;;;;;;4936689;29;20048;-91
2022/12/08 01:18:47;;;;;;;13.60;4.45;;;13.30;95.40;;;;;;4936573;28;20034;-92
2022/12/08 01:21:13;;;;;;;12.10;3.90;;;13.40;95.50;;;;;;4941511;29;20023;-92
2022/12/08 01:23:38;;;;;;;6.45;3.72;;;13.30;95.40;;;;;;4949065;29;20020;-92
2022/12/08 01:26:06;;;;;;;12.30;4.75;;;13.40;95.50;;;;;;4936656;29;20047;-92
2022/12/08 01:28:31;;;;;;;9.55;4.35;;;13.30;95.40;;;;;;4936837;29;20032;-92
2022/12/08 01:30:58;;;;;;;9.30;3.50;;;13.30;95.50;;;;;;4936678;29;20030;-92
2022/12/08 01:33:24;;;;;;;9.00;3.60;;;13.40;95.40;;;;;;4936482;29;20027;-92
2022/12/08 01:35:50;;;;;;;10.10;3.90;;;13.30;95.40;;;;;;4936458;28;20589;-92
2022/12/08 01:38:16;;;;;;;7.32;3.00;;;13.30;95.40;;;;;;4936083;29;20027;-91
2022/12/08 01:40:41;;;;;;;8.32;3.78;;;13.30;95.40;;;;;;4936333;29;20508;-92
2022/12/08 01:43:15;;;;;;;12.55;4.10;;;13.40;95.40;;;;;;4936398;29;20028;-92
2022/12/08 01:45:40;;;;;;;11.85;3.85;;;13.30;95.40;;;;;;4936382;29;20122;-92
2022/12/08 01:48:21;;;;;;;11.00;3.92;;;13.30;95.50;;;;;;4936077;29;20182;-93
2022/12/08 01:50:48;;;;;;;11.48;3.78;;;13.30;95.40;;;;;;4936441;29;20650;-92
2022/12/08 01:53:22;;;;;;;13.65;4.18;;;13.30;95.40;;;;;;4936396;29;20032;-92
2022/12/08 01:55:56;;;;;;;9.52;3.40;;;13.30;95.50;;;;;;4952924;29;20031;-92
2022/12/08 01:58:26;;;;;;;13.68;3.80;;;13.30;95.50;;;;;;4955094;29;20548;-92
2022/12/08 02:00:52;;;;;;;7.50;3.28;;;13.30;95.50;;;;;;4962243;28;20031;-92
2022/12/08 02:03:24;;;;;;;8.98;3.13;;;13.30;95.50;;;;;;4935554;29;20035;-92
2022/12/08 02:05:51;;;;;;;12.10;3.72;;;13.30;95.50;;;;;;4952036;28;20035;-93
2022/12/08 02:08:17;;;;;;;10.88;4.03;;;13.20;95.50;;;;;;4951892;28;20035;-92
2022/12/08 02:10:43;;;;;;;12.55;3.47;;;13.20;95.50;;;;;;4935769;29;20031;-92
2022/12/08 02:13:15;;;;;;;8.98;3.05;;;13.20;95.50;;;;;;4935808;29;20493;-92
2022/12/08 02:15:59;;;;;;;8.20;3.38;;;13.20;95.50;;;;;;4935847;29;20504;-92
2022/12/08 02:18:48;;;;;;;11.35;3.30;;;13.20;95.50;;;;;;4951240;28;20027;-92
2022/12/08 02:21:24;;;;;;;13.70;3.95;;;13.20;95.60;;;;;;4951974;28;20668;-92
2022/12/08 02:24:23;;;;;;;8.77;3.50;;;13.30;95.60;;;;;;4951766;28;20036;-92
2022/12/08 02:27:18;;;;;;;8.00;3.20;;;13.20;95.50;;;;;;4951879;29;20433;-90
2022/12/08 02:29:58;;;;;;;12.20;3.35;;;13.20;95.60;;;;;;4936701;29;20051;-90
2022/12/08 02:32:57;;;;;;;9.35;2.67;;;13.20;95.60;;;;;;4951395;28;20131;-90
2022/12/08 02:35:26;;;;;;;11.93;3.05;;;13.30;95.60;;;;;;4951310;29;20398;-90
2022/12/08 02:38:13;;;;;;;5.78;2.88;;;13.20;95.60;;;;;;4935355;29;20031;-90
2022/12/08 02:40:47;;;;;;;8.18;2.60;;;13.20;95.60;;;;;;4935261;29;20079;-90
2022/12/08 02:43:37;;;;;;;5.80;2.95;;;13.20;95.60;;;;;;4951348;29;20090;-90
2022/12/08 02:46:11;;;;;;;7.25;2.72;;;13.20;95.60;;;;;;4916444;29;20123;-90
2022/12/08 02:48:37;;;;;;;7.75;2.83;;;13.20;95.60;;;;;;4916155;29;20095;-90
2022/12/08 02:51:03;;;;;;;5.68;3.08;;;13.20;95.60;;;;;;4916177;29;20024;-90
2022/12/08 02:53:31;;;;;;;7.70;2.83;;;13.20;95.60;;;;;;4915944;29;20379;-90
2022/12/08 02:56:49;;;;;;;4.55;2.83;;;13.20;95.60;;;;;;4916228;29;20075;-90
2022/12/08 02:59:30;;;;;;;6.53;2.72;;;13.20;95.60;;;;;;4915959;29;20072;-90
2022/12/08 03:02:17;;;;;;;10.57;3.08;;;13.20;95.60;;;;;;4916053;29;20054;-90
2022/12/08 03:05:13;;;;;;;7.03;3.00;;;13.20;95.60;;;;;;4931910;29;20036;-90
2022/12/08 03:08:09;;;;;;;8.98;3.13;;;13.20;95.60;;;;;;4916059;29;20040;-90
2022/12/08 03:10:45;;;;;;;7.43;2.50;;;13.20;95.70;;;;;;4932488;29;20024;-89
2022/12/08 03:13:13;;;;;;;5.28;2.70;;;13.10;95.60;;;;;;4916337;29;20038;-90
2022/12/08 03:15:40;;;;;;;7.35;3.30;;;13.10;95.60;;;;;;4923424;29;20028;-91
2022/12/08 03:18:09;;;;;;;6.10;2.90;;;13.10;95.60;;;;;;4941518;29;20024;-93
2022/12/08 03:20:38;;;;;;;3.80;2.05;;;13.10;95.60;;;;;;4958457;28;20019;-91
2022/12/08 03:23:08;;;;;;;5.20;2.80;;;13.10;95.70;;;;;;4976686;28;20117;-93
2022/12/08 03:25:39;;;;;;;12.32;2.97;;;13.10;95.60;;;;;;4974082;28;20367;-92
2022/12/08 03:28:05;;;;;;;7.43;2.20;;;13.10;95.60;;;;;;4961042;28;20023;-92
2022/12/08 03:30:35;;;;;;;6.30;2.60;;;13.10;95.70;;;;;;4955813;28;20048;-93
2022/12/08 03:33:08;;;;;;;5.57;2.42;;;13.10;95.70;;;;;;4945715;28;20523;-90
2022/12/08 03:35:38;;;;;;;3.97;2.20;;;13.10;95.70;;;;;;4934480;29;20429;-90
2022/12/08 03:38:15;;;;;;;5.30;2.70;;;13.10;95.70;;;;;;4934290;29;20122;-89
2022/12/08 03:40:41;;;;;;;6.40;2.92;;;13.10;95.70;;;;;;4935279;29;20130;-90
2022/12/08 03:43:06;;;;;;;4.40;2.90;;;13.10;95.80;;;;;;4951168;29;20034;-89
2022/12/08 03:45:32;;;;;;;6.68;2.45;;;13.10;95.80;;;;;;4940587;29;20020;-90
2022/12/08 03:47:57;;;;;;;5.65;2.67;;;13.00;95.80;;;;;;4934067;29;20027;-89
2022/12/08 03:50:23;;;;;;;11.80;3.28;;;13.00;95.70;;;;;;4934125;29;20027;-90
2022/12/08 03:52:49;;;;;;;6.22;2.78;;;13.10;95.80;;;;;;4933937;29;20027;-90
2022/12/08 03:55:15;;;;;;;6.60;2.47;;;13.00;95.80;;;;;;4934240;29;20122;-90
2022/12/08 03:57:41;;;;;;;4.88;2.38;;;13.00;95.80;;;;;;4934067;29;20024;-91
2022/12/08 04:00:10;;;;;;;5.68;2.40;;;13.10;95.80;;;;;;4934234;29;20023;-90
2022/12/08 04:02:35;;;;;;;3.23;2.20;;;13.10;95.80;;;;;;4934203;29;20031;-91
2022/12/08 04:05:01;;;;;;;4.47;2.63;;;13.00;95.80;;;;;;4934100;29;20042;-91
2022/12/08 04:07:26;;;;;;;5.47;2.38;;;13.00;95.90;;;;;;4933903;29;20119;-91
2022/12/08 04:09:52;;;;;;;3.35;2.40;;;13.00;95.80;;;;;;4948524;29;20120;-91
2022/12/08 04:12:17;;;;;;;4.30;2.40;;;13.10;95.80;;;;;;4934959;29;20039;-90
2022/12/08 04:14:43;;;;;;;3.20;1.90;;;13.00;95.80;;;;;;4933946;29;20029;-91
2022/12/08 04:17:08;;;;;;;3.67;2.10;;;13.00;95.80;;;;;;4942545;29;20031;-90
2022/12/08 04:19:34;;;;;;;8.25;2.20;;;13.00;95.90;;;;;;4942042;28;20136;-91
2022/12/08 04:22:00;;;;;;;3.67;1.85;;;13.00;95.90;;;;;;4933861;29;20042;-91
2022/12/08 04:24:25;;;;;;;4.00;2.10;;;13.00;95.90;;;;;;4945827;29;20101;-90
2022/12/08 04:26:51;;;;;;;4.60;2.40;;;13.00;95.90;;;;;;4943086;29;20518;-90
2022/12/08 04:29:16;;;;;;;8.80;3.03;;;13.00;95.90;;;;;;4934845;29;20034;-90
2022/12/08 04:31:42;;;;;;;4.18;1.90;;;13.00;95.90;;;;;;4933685;29;20039;-90
2022/12/08 04:34:08;;;;;;;2.78;1.88;;;13.00;95.90;;;;;;4933852;29;20030;-92
2022/12/08 04:36:34;;;;;;;3.72;2.20;;;12.90;95.90;;;;;;4933792;29;20370;-90
2022/12/08 04:38:59;;;;;;;4.18;2.00;;;12.90;95.80;;;;;;4948349;29;20035;-90
2022/12/08 04:41:25;;;;;;;3.92;2.25;;;12.90;95.90;;;;;;4974618;23;20065;-92
2022/12/08 04:43:51;;;;;;;2.90;1.55;;;13.00;95.90;;;;;;4992203;28;20110;-92
2022/12/08 04:46:16;;;;;;;6.82;2.40;;;12.90;95.90;;;;;;4991936;28;20027;-92
2022/12/08 04:48:42;;;;;;;3.45;2.08;;;12.90;95.90;;;;;;4991557;28;20027;-92
2022/12/08 04:51:16;;;;;;;4.18;2.00;;;12.90;95.90;;;;;;4975510;28;20026;-91
2022/12/08 04:53:42;;;;;;;3.53;2.22;;;12.90;95.90;;;;;;4991917;28;20122;-93
2022/12/08 04:56:15;;;;;;;5.68;1.85;;;12.90;95.90;;;;;;4991747;28;20030;-92
2022/12/08 04:58:40;;;;;;;3.35;2.08;;;12.90;95.90;;;;;;4980031;28;20023;-92
2022/12/08 05:01:06;;;;;;;9.05;2.38;;;12.90;96.00;;;;;;4969293;28;20027;-92
2022/12/08 05:03:32;;;;;;;4.18;2.30;;;12.90;96.30;;;;;;4981887;28;20422;-92
2022/12/08 05:06:01;;;;;;;5.20;2.20;;;12.90;96.20;;;;;;4975529;28;20511;-92
2022/12/08 05:08:27;;;;;;;5.40;2.40;;;13.00;96.20;;;;;;4986902;28;20038;-92
2022/12/08 05:10:52;;;;;;;3.97;2.28;;;13.00;96.20;;;;;;4966087;28;20122;-93
2022/12/08 05:13:18;;;;;;;4.28;2.03;;;13.10;96.10;;;;;;4990158;28;20539;-93
2022/12/08 05:15:44;;;;;;;22.45;2.85;;;13.10;96.10;;;;;;4995058;28;20072;-93
2022/12/08 05:18:10;;;;;;;11.07;2.88;;;13.20;96.20;;;;;;4994936;28;20023;-92
2022/12/08 05:20:35;;;;;;;13.70;2.22;;;13.20;96.00;;;;;;4976116;28;20027;-92
2022/12/08 05:23:01;;;;;;;12.63;2.72;;;13.20;96.00;;;;;;4975253;28;20090;-92
2022/12/08 05:25:27;;;;;;;7.72;2.50;;;13.20;95.90;;;;;;4975231;28;20526;-92
2022/12/08 05:27:52;;;;;;;5.97;2.38;;;13.20;95.90;;;;;;4969176;28;20023;-92
2022/12/08 05:30:18;;;;;;;11.40;2.63;;;13.20;95.90;;;;;;4975083;28;20511;-92
2022/12/08 05:32:43;;;;;;;11.73;2.15;;;13.20;95.80;;;;;;4974775;28;20485;-92
2022/12/08 05:35:09;;;;;;;8.90;2.42;;;13.20;95.90;;;;;;4975062;28;20023;-92
2022/12/08 05:37:35;;;;;;;11.38;2.38;;;13.20;95.80;;;;;;4960419;28;20114;-91
2022/12/08 05:40:01;;;;;;;12.77;2.15;;;13.20;95.70;;;;;;4955631;28;20027;-92
2022/12/08 05:42:26;;;;;;;16.23;2.45;;;13.20;95.60;;;;;;4955592;28;20098;-91
2022/12/08 05:44:52;;;;;;;12.40;2.38;;;13.20;95.60;;;;;;4955590;28;20027;-91
2022/12/08 05:47:18;;;;;;;9.00;2.72;;;13.20;95.60;;;;;;4955536;28;20043;-93
2022/12/08 05:49:43;;;;;;;9.77;2.88;;;13.20;95.50;;;;;;4972313;28;20023;-91
2022/12/08 05:52:09;;;;;;;9.20;2.40;;;13.30;95.60;;;;;;4974266;28;20023;-92
2022/12/08 05:54:35;;;;;;;10.30;2.08;;;13.20;95.50;;;;;;4974070;28;20030;-91
2022/12/08 05:57:00;;;;;;;14.93;2.42;;;13.20;95.40;;;;;;4960693;28;20035;-92
2022/12/08 05:59:26;;;;;;;11.43;2.53;;;13.20;95.50;;;;;;4954962;28;20397;-93
2022/12/08 06:01:51;;;;;;;7.38;2.20;;;13.20;95.60;;;;;;4955331;29;20118;-92
2022/12/08 06:04:17;;;;;;;13.38;2.58;;;13.20;95.60;;;;;;4970966;28;20037;-92
2022/12/08 06:06:42;;;;;;;7.57;3.55;;;13.30;96.00;;;;;;4988276;28;20030;-92
2022/12/08 06:09:08;;;;;;;8.65;4.13;;;12.20;82.90;;;;;;4966575;28;20047;-89
2022/12/08 06:11:34;;;;;;;14.02;4.03;;;10.70;83.30;;;;;;4955595;28;20035;-91
2022/12/08 06:14:00;;;;;;;17.67;4.32;;;11.00;91.90;;;;;;4970081;28;20508;-91
2022/12/08 06:16:27;;;;;;;25.67;3.65;;;11.70;92.40;;;;;;4959615;28;20023;-91
2022/12/08 06:18:53;;;;;;;25.08;4.30;;;12.20;92.30;;;;;;4982334;28;20511;-91
2022/12/08 06:21:19;;;;;;;19.35;3.42;;;12.40;92.10;;;;;;4973966;28;20022;-90
2022/12/08 06:23:48;;;;;;;17.98;4.35;;;12.70;92.20;;;;;;4974015;28;20452;-92
2022/12/08 06:26:15;;;;;;;20.30;3.90;;;12.70;92.00;;;;;;4964493;28;20377;-92
2022/12/08 06:28:42;;;;;;;12.52;3.78;;;12.70;90.80;;;;;;4965440;28;20022;-91
2022/12/08 06:31:38;;;;;;;18.15;3.90;;;12.70;90.50;;;;;;4973843;28;20384;-91
2022/12/08 06:34:03;;;;;;;7.68;3.28;;;12.80;90.60;;;;;;4967449;28;20035;-92
2022/12/08 06:36:29;;;;;;;4.90;2.75;;;13.00;90.90;;;;;;4954405;28;20030;-92
2022/12/08 06:38:55;;;;;;;5.47;2.45;;;13.10;91.10;;;;;;4960865;28;20038;-91
2022/12/08 06:41:21;;;;;;;5.32;2.40;;;13.20;91.30;;;;;;4963455;28;20023;-92
2022/12/08 06:43:46;;;;;;;11.25;2.65;;;13.30;91.50;;;;;;4964913;28;20035;-91
2022/12/08 06:46:16;;;;;;;13.82;2.85;;;13.30;91.70;;;;;;4955300;28;20034;-92
2022/12/08 06:48:42;;;;;;;3.53;2.08;;;13.40;91.90;;;;;;4971885;28;20019;-92
2022/12/08 06:51:10;;;;;;;3.42;2.25;;;13.40;92.10;;;;;;4970350;28;20033;-91
2022/12/08 06:53:37;;;;;;;5.82;2.20;;;13.50;92.30;;;;;;4970634;28;20026;-92
2022/12/08 06:56:03;;;;;;;3.50;2.20;;;13.60;92.40;;;;;;4952605;28;20047;-91
2022/12/08 06:58:28;;;;;;;8.32;2.85;;;13.60;92.50;;;;;;4964358;28;20070;-92
2022/12/08 07:00:54;;;;;;;9.35;4.13;;;13.60;92.60;;;;;;4949906;28;20019;-92
2022/12/08 07:03:20;;;;;;;14.70;4.88;;;12.80;83.20;;;;;;4955665;28;20034;-92
2022/12/08 07:05:45;;;;;;;13.52;4.63;;;12.30;90.60;;;;;;4990868;28;20103;-94
2022/12/08 07:08:11;;;;;;;10.05;5.15;;;12.50;85.10;;;;;;4963572;28;20019;-92
2022/12/08 07:10:37;;;;;;;16.98;4.97;;;12.50;78.60;;;;;;4959895;28;20653;-91
2022/12/08 07:13:02;;;;;;;26.98;5.25;;;12.70;79.70;;;;;;4963052;28;20034;-93
2022/12/08 07:15:28;;;;;;;9.35;3.85;;;13.00;79.90;;;;;;4968003;28;20477;-92
2022/12/08 07:17:53;;;;;;;7.80;3.88;;;13.20;81.10;;;;;;4969065;28;20027;-92
2022/12/08 07:20:19;;;;;;;7.07;3.92;;;13.50;81.10;;;;;;4968790;28;20023;-93
2022/12/08 07:22:50;;;;;;;8.27;3.55;;;13.60;81.70;;;;;;4980143;28;20473;-90
2022/12/08 07:25:16;;;;;;;7.30;4.13;;;13.70;82.40;;;;;;4972049;28;20027;-90
2022/12/08 07:27:41;;;;;;;11.82;3.22;;;13.80;83.10;;;;;;4969053;28;20035;-90
2022/12/08 07:30:07;;;;;;;7.13;3.25;;;13.90;83.80;;;;;;4965714;28;20086;-90
2022/12/08 07:32:36;;;;;;;29.75;4.53;;;14.00;84.40;;;;;;4954651;28;20109;-90
2022/12/08 07:35:01;;;;;;;12.00;3.05;;;14.00;85.20;;;;;;4972813;28;20694;-91
2022/12/08 07:37:27;;;;;;;5.95;3.03;;;14.10;85.80;;;;;;4971533;28;20082;-90
2022/12/08 07:39:52;;;;;;;7.47;2.80;;;14.20;86.30;;;;;;4984735;28;20381;-90
2022/12/08 07:42:18;;;;;;;6.45;2.85;;;14.20;86.70;;;;;;4983352;28;20031;-90
2022/12/08 07:44:43;;;;;;;7.63;3.10;;;14.20;87.10;;;;;;4971958;28;20054;-91
2022/12/08 07:47:09;;;;;;;7.18;2.60;;;14.30;87.40;;;;;;4975674;28;20403;-90
2022/12/08 07:49:34;;;;;;;8.38;2.53;;;14.40;87.80;;;;;;4977825;28;20031;-91
2022/12/08 07:52:00;;;;;;;7.65;2.65;;;14.40;88.10;;;;;;4969822;28;20025;-91
2022/12/08 07:54:26;;;;;;;11.43;2.83;;;14.50;88.40;;;;;;4975504;28;20024;-90
2022/12/08 07:56:52;;;;;;;4.65;2.60;;;14.50;88.60;;;;;;4963491;28;20134;-90
2022/12/08 07:59:18;;;;;;;6.22;2.28;;;14.60;88.90;;;;;;4972346;28;20053;-91
2022/12/08 08:01:44;;;;;;;3.25;2.17;;;14.70;89.10;;;;;;4970931;28;20053;-87
2022/12/08 08:04:10;;;;;;;4.18;2.42;;;14.70;89.30;;;;;;4962976;28;20476;-87
2022/12/08 08:06:36;;;;;;;4.57;2.15;;;14.80;89.50;;;;;;4975671;28;20038;-87
2022/12/08 08:09:02;;;;;;;4.63;2.40;;;14.80;89.60;;;;;;4979056;28;20113;-86
2022/12/08 08:11:28;;;;;;;4.15;1.80;;;14.90;89.80;;;;;;4972394;28;20332;-90
2022/12/08 08:13:53;;;;;;;3.15;2.05;;;14.90;89.80;;;;;;4962583;28;20118;-92
2022/12/08 08:16:20;;;;;;;3.35;2.28;;;15.00;90.00;;;;;;4961986;28;20030;-91
2022/12/08 08:18:48;;;;;;;3.63;2.28;;;15.00;90.10;;;;;;4973807;28;20027;-92
2022/12/08 08:21:14;;;;;;;4.38;2.00;;;15.00;90.20;;;;;;4970757;28;20026;-92
2022/12/08 08:23:39;;;;;;;6.63;2.10;;;15.00;90.30;;;;;;4978322;28;20033;-90
2022/12/08 08:26:05;;;;;;;6.50;2.30;;;15.00;90.30;;;;;;4977262;28;20037;-91
2022/12/08 08:28:31;;;;;;;4.85;1.90;;;15.10;90.30;;;;;;4976073;28;20027;-92
2022/12/08 08:30:57;;;;;;;2.97;2.17;;;15.10;90.30;;;;;;4972159;28;20050;-91
2022/12/08 08:33:23;;;;;;;3.88;2.30;;;15.20;90.40;;;;;;4985591;28;20031;-91
2022/12/08 08:35:49;;;;;;;6.72;2.22;;;15.20;90.40;;;;;;4958233;28;20065;-92
2022/12/08 08:38:14;;;;;;;1.95;1.80;;;15.20;90.40;;;;;;4956707;28;20477;-92
2022/12/08 08:40:40;;;;;;;3.88;2.60;;;15.30;90.50;;;;;;4971128;28;20026;-91
2022/12/08 08:43:06;;;;;;;3.13;2.00;;;15.30;90.50;;;;;;4992999;28;20557;-91
2022/12/08 08:45:32;;;;;;;4.47;2.20;;;15.30;90.50;;;;;;4981040;28;20491;-92
2022/12/08 08:47:58;;;;;;;5.25;2.08;;;15.30;90.60;;;;;;4976437;28;20238;-92
2022/12/08 08:50:24;;;;;;;3.90;2.03;;;15.30;90.60;;;;;;4961423;28;20031;-92
2022/12/08 08:52:49;;;;;;;4.53;2.13;;;15.30;90.70;;;;;;4956847;29;20118;-90
2022/12/08 08:55:15;;;;;;;10.07;2.33;;;15.40;90.70;;;;;;4966139;28;20023;-90
2022/12/08 08:57:41;;;;;;;5.05;1.80;;;15.40;90.70;;;;;;4989680;28;20046;-91
2022/12/08 09:00:09;;;;;;;3.95;2.10;;;15.40;90.70;;;;;;4995776;28;20034;-93
2022/12/08 09:02:35;;;;;;;7.40;2.08;;;15.40;90.70;;;;;;4996220;28;20407;-92
2022/12/08 09:05:01;;;;;;;4.07;2.05;;;15.50;90.80;;;;;;4978089;28;20494;-92
2022/12/08 09:07:27;;;;;;;3.83;2.10;;;15.40;91.00;;;;;;4992960;28;20488;-93
2022/12/08 09:09:53;;;;;;;4.10;2.00;;;15.50;90.80;;;;;;4992843;28;20034;-91
2022/12/08 09:12:18;;;;;;;2.78;1.77;;;15.50;90.90;;;;;;4995498;28;20062;-91
2022/12/08 09:14:44;;;;;;;5.38;2.30;;;15.50;90.90;;;;;;4995644;28;20040;-91
2022/12/08 09:17:10;;;;;;;3.30;2.13;;;15.50;90.90;;;;;;4992900;28;20030;-90
2022/12/08 09:19:36;;;;;;;4.47;1.88;;;15.60;90.90;;;;;;4995092;28;20023;-91
2022/12/08 09:22:02;;;;;;;4.68;2.03;;;15.60;90.90;;;;;;4994382;28;20034;-91
2022/12/08 09:24:27;;;;;;;6.80;2.30;;;15.60;91.00;;;;;;4968737;28;20035;-91
2022/12/08 09:26:53;;;;;;;5.65;2.30;;;15.60;91.00;;;;;;4965741;28;20027;-91
2022/12/08 09:29:19;;;;;;;3.22;2.10;;;15.60;91.00;;;;;;4974038;28;20031;-91
2022/12/08 09:31:44;;;;;;;3.03;2.05;;;15.70;91.00;;;;;;4966115;28;20057;-91
2022/12/08 09:34:11;;;;;;;3.67;2.20;;;15.70;91.00;;;;;;4975495;28;20070;-91
2022/12/08 09:36:37;;;;;;;3.08;1.85;;;15.80;91.10;;;;;;4963614;28;20026;-90
2022/12/08 09:39:02;;;;;;;3.17;1.83;;;15.70;91.00;;;;;;4964040;28;20082;-91
2022/12/08 09:41:35;;;;;;;4.00;2.05;;;15.80;91.10;;;;;;4969418;28;20034;-90
2022/12/08 09:44:39;;;;;;;3.28;1.95;;;15.80;91.10;;;;;;4974648;28;20575;-91
2022/12/08 09:47:15;;;;;;;6.05;2.10;;;15.80;91.10;;;;;;4982160;28;20067;-91
2022/12/08 09:49:47;;;;;;;3.25;2.22;;;15.80;91.20;;;;;;4985257;28;20014;-89
2022/12/08 09:52:27;;;;;;;3.45;1.95;;;15.80;91.20;;;;;;4968264;28;20039;-92
2022/12/08 09:54:58;;;;;;;2.72;2.03;;;15.80;91.20;;;;;;4957937;28;20067;-91
2022/12/08 09:57:24;;;;;;;3.10;2.10;;;15.90;91.20;;;;;;4966743;28;20047;-93
2022/12/08 10:00:01;;;;;;;3.10;2.30;;;15.90;91.20;;;;;;4970582;28;20023;-90
2022/12/08 10:02:28;;;;;;;5.47;1.98;;;15.90;91.20;;;;;;4972850;28;20031;-90
2022/12/08 10:04:55;;;;;;;4.13;2.15;;;15.90;91.20;;;;;;4956369;28;20027;-90
2022/12/08 10:07:36;;;;;;;2.65;1.70;;;15.90;91.20;;;;;;4960791;28;20483;-91
2022/12/08 10:10:13;;;;;;;5.05;2.25;;;15.90;91.20;;;;;;4963010;28;20087;-90
2022/12/08 10:12:55;;;;;;;3.95;2.38;;;16.00;91.20;;;;;;4973119;28;20035;-91
2022/12/08 10:15:44;;;;;;;4.32;1.77;;;16.00;91.20;;;;;;4954931;28;20043;-90
2022/12/08 10:18:14;;;;;;;8.60;2.10;;;16.00;91.20;;;;;;4959560;28;20058;-90
2022/12/08 10:20:42;;;;;;;3.70;2.00;;;16.00;91.20;;;;;;4974147;28;20054;-89
2022/12/08 10:23:08;;;;;;;3.75;2.00;;;16.00;91.10;;;;;;4962928;28;20145;-91
2022/12/08 10:25:40;;;;;;;3.92;2.22;;;16.00;91.10;;;;;;4965472;28;20050;-91
2022/12/08 10:28:08;;;;;;;3.13;1.90;;;16.10;91.10;;;;;;4958896;28;20034;-91
2022/12/08 10:30:33;;;;;;;3.03;2.08;;;16.10;91.10;;;;;;4972460;28;20519;-91
2022/12/08 10:32:59;;;;;;;4.15;2.00;;;16.10;91.00;;;;;;4970230;28;20039;-91
2022/12/08 10:35:42;;;;;;;4.18;2.17;;;16.10;91.00;;;;;;4966855;28;20081;-91
2022/12/08 10:38:16;;;;;;;3.42;2.03;;;16.10;91.00;;;;;;4967016;28;20373;-87
2022/12/08 10:40:44;;;;;;;6.22;2.28;;;16.20;91.00;;;;;;4978288;28;20015;-91
2022/12/08 10:43:17;;;;;;;3.45;2.22;;;16.20;91.00;;;;;;4989993;28;20038;-93
2022/12/08 10:45:43;;;;;;;4.75;2.22;;;16.20;91.00;;;;;;4990020;28;20117;-91
2022/12/08 10:48:23;;;;;;;33.10;3.50;;;16.30;90.90;;;;;;4990513;28;20034;-91
2022/12/08 10:50:51;;;;;;;7.28;1.95;;;16.30;90.90;;;;;;4978634;28;20027;-90
2022/12/08 10:53:32;;;;;;;4.22;1.85;;;16.30;90.90;;;;;;4983142;28;20034;-89
2022/12/08 10:56:01;;;;;;;4.85;1.85;;;16.30;90.90;;;;;;4994134;28;20025;-90
2022/12/08 10:58:35;;;;;;;3.85;2.15;;;16.30;90.90;;;;;;5005411;28;20018;-92
2022/12/08 11:01:21;;;;;;;2.50;1.52;;;16.30;90.90;;;;;;4958711;28;20027;-91
2022/12/08 11:04:01;;;;;;;8.48;2.40;;;16.30;90.90;;;;;;4962816;28;20045;-91
2022/12/08 11:06:31;;;;;;;;;;;16.30;90.80;;;;;;4974456;28;20030;-92
2022/12/08 11:09:13;;;;;;;2.55;1.77;;;16.30;90.80;;;;;;4989925;28;19933;-93
2022/12/08 11:11:49;;;;;;;6.10;2.00;;;16.40;90.80;;;;;;4969012;28;20035;-91
2022/12/08 11:14:28;;;;;;;2.45;2.00;;;16.40;90.80;;;;;;4956846;28;20023;-91
2022/12/08 11:17:04;;;;;;;4.10;2.13;;;16.40;90.80;;;;;;4974060;28;20078;-91
2022/12/08 11:19:29;;;;;;;5.38;2.05;;;16.40;90.80;;;;;;4977746;28;20026;-90
2022/12/08 11:21:55;;;;;;;6.30;2.75;;;16.40;90.80;;;;;;4960817;28;20449;-91
2022/12/08 11:24:24;;;;;;;2.75;1.80;;;16.40;90.80;;;;;;4977382;28;20035;-92
2022/12/08 11:27:04;;;;;;;4.68;2.10;;;16.40;90.80;;;;;;4975569;28;20039;-91
2022/12/08 11:29:32;;;;;;;3.63;1.80;;;16.40;90.80;;;;;;4971127;28;20043;-92
2022/12/08 11:32:12;;;;;;;4.97;1.88;;;16.40;90.80;;;;;;4954175;29;20031;-91
2022/12/08 11:34:49;;;;;;;3.28;2.20;;;16.40;90.80;;;;;;4969690;28;20117;-91
2022/12/08 11:37:40;;;;;;;3.58;1.85;;;16.40;90.70;;;;;;4972937;28;20407;-91
2022/12/08 11:40:31;;;;;;;2.22;1.63;;;16.40;90.70;;;;;;4959916;28;20026;-91
2022/12/08 11:43:15;;;;;;;4.93;2.15;;;16.50;90.70;;;;;;4974661;28;20113;-91
2022/12/08 11:49:05;;;;;;;4.55;1.60;;;16.50;90.70;;;;;;4977771;28;20074;-90
2022/12/08 11:51:38;;;;;;;6.72;2.17;;;16.50;90.70;;;;;;4932926;29;20038;-90
2022/12/08 11:54:26;;;;;;;2.85;1.90;;;16.50;90.60;;;;;;4924431;29;20524;-89
2022/12/08 11:57:04;;;;;;;2.13;1.67;;;16.50;90.70;;;;;;4927517;29;20473;-90
2022/12/08 11:59:44;;;;;;;5.43;2.33;;;16.50;90.70;;;;;;4905288;29;20035;-89
2022/12/08 12:02:24;;;;;;;5.40;2.20;;;16.50;90.70;;;;;;4922245;29;20489;-91
2022/12/08 12:05:08;;;;;;;6.30;1.85;;;16.50;90.70;;;;;;4913178;29;20082;-90
2022/12/08 12:08:17;;;;;;;6.10;2.63;;;16.50;90.70;;;;;;4923747;29;20040;-90
2022/12/08 12:10:59;;;;;;;9.07;2.25;;;16.60;90.70;;;;;;4914225;29;20032;-90
2022/12/08 12:13:43;;;;;;;9.27;2.42;;;16.60;90.70;;;;;;4924030;29;20042;-89
2022/12/08 12:16:33;;;;;;;7.22;2.25;;;16.60;90.70;;;;;;4924975;29;20025;-90
2022/12/08 12:19:04;;;;;;;3.22;2.20;;;16.60;90.70;;;;;;4895293;29;22020;-89
2022/12/08 12:21:39;;;;;;;7.03;2.70;;;16.60;90.70;;;;;;4904985;29;20410;-90
2022/12/08 12:24:09;;;;;;;4.93;2.53;;;16.60;90.70;;;;;;4899952;29;20514;-90
2022/12/08 12:26:48;;;;;;;5.43;2.55;;;16.60;90.70;;;;;;4920154;29;20028;-89
2022/12/08 12:29:19;;;;;;;5.95;2.47;;;16.60;90.70;;;;;;4953704;29;20096;-89
2022/12/08 12:31:50;;;;;;;6.20;3.10;;;16.60;90.80;;;;;;4953677;28;20035;-91
2022/12/08 12:34:21;;;;;;;5.88;2.58;;;16.60;90.70;;;;;;4954578;28;20035;-90
2022/12/08 12:36:52;;;;;;;6.97;2.85;;;16.60;90.60;;;;;;4970022;28;20019;-90
2022/12/08 12:39:22;;;;;;;3.72;2.45;;;16.60;90.60;;;;;;4953223;28;20027;-90
2022/12/08 12:41:53;;;;;;;;;;;16.60;90.50;;;;;;4953428;29;20019;-90
2022/12/08 12:44:27;;;;;;;4.80;2.67;;;16.60;90.50;;;;;;4969426;28;20379;-90
2022/12/08 12:46:56;;;;;;;5.50;2.63;;;16.60;90.50;;;;;;4969437;28;20032;-89
2022/12/08 12:49:37;;;;;;;7.70;3.40;;;16.60;90.40;;;;;;4973232;28;20513;-89
2022/12/08 12:52:24;;;;;;;4.88;3.05;;;16.60;90.50;;;;;;4954132;28;20036;-90
2022/12/08 12:54:49;;;;;;;10.63;2.47;;;16.60;90.50;;;;;;4950208;29;20094;-90
2022/12/08 12:57:18;;;;;;;7.75;2.42;;;16.50;90.40;;;;;;4947014;29;20492;-90
2022/12/08 12:59:46;;;;;;;5.50;2.63;;;16.50;90.40;;;;;;4958802;28;20028;-89
2022/12/08 13:02:34;;;;;;;9.18;2.88;;;16.50;90.30;;;;;;4955697;28;20506;-90
2022/12/08 13:05:25;;;;;;;6.15;3.58;;;16.50;90.30;;;;;;4957035;28;20023;-91
2022/12/08 13:07:50;;;;;;;4.47;2.33;;;16.50;90.30;;;;;;4955601;28;20035;-91